KSTJ/STJ METAR and TAF weather

Enter ICAO airport designator
Station Type Date Time Source
KSTJ METAR 2019/10/14 05:53 UTC NOAA

KSTJ 140553Z AUTO 00000KT 10SM CLR 02/01 A3002 RMK AO2 SLP169 T00220011 10111 20017 401890000 51008


Station Type Date Time Source
KSTJ Decoded METAR 2019/10/14 05:53 UTC NOAA

ROSECRANS MEMORIAL AIRPORT, MO, United States (KSTJ) 39-46N 94-55W 247M
Oct 14, 2019 - 01:53 AM EDT / 2019.10.14 0553 UTC
Wind: Calm:0
Visibility: 10 mile(s):0
Sky conditions: clear
Temperature: 36.0 F (2.2 C)
Dew Point: 34.0 F (1.1 C)
Relative Humidity: 92%
Pressure (altimeter): 30.02 in. Hg (1016 hPa)
Pressure tendency: 0.02 inches (0.8 hPa) higher than three hours ago
ob: KSTJ 140553Z AUTO 00000KT 10SM CLR 02/01 A3002 RMK AO2 SLP169 T00220011 10111 20017 401890000 51008
cycle: 6

Station Type Date Time Source
KSTJ TAF 2019/10/14 06:22 UTC NOAA

TAF KSTJ 140520Z 1406/1506 VRB02KT P6SM SKC
FM141600 15010KT P6SM FEW250

Example: see airport list